Time,TemperatureF,DewpointF,PressureIn,WindDirection,WindDirectionDegrees,WindSpeedMPH,WindSpeedGustMPH,Humidity,HourlyPrecipIn,Conditions,Clouds,dailyrainin,SoftwareType,DateUTC
2013-02-19 00:01:00,29.4,-0.4,29.99,ENE,77,0.0,0.0,27,0.00,,SKC,0.00,VWS V12.07,2013-02-19 07:01:00,
2013-02-19 00:30:00,30.3,-2.2,29.97,ENE,77,0.0,0.0,24,0.00,,SKC,0.00,VWS V12.07,2013-02-19 07:30:00,
2013-02-19 01:00:00,30.4,-3.0,29.94,ENE,77,0.0,0.0,23,0.00,,SKC,0.00,VWS V12.07,2013-02-19 08:00:00,
2013-02-19 01:30:00,29.1,-0.7,29.93,ENE,77,0.0,0.0,27,0.00,,SKC,0.00,VWS V12.07,2013-02-19 08:30:00,
2013-02-19 02:00:00,27.9,-1.0,29.93,WSW,240,0.0,4.0,28,0.00,,SKC,0.00,VWS V12.07,2013-02-19 09:00:00,
2013-02-19 02:30:00,27.5,2.2,29.91,WSW,240,0.0,0.0,33,0.00,,SKC,0.00,VWS V12.07,2013-02-19 09:30:00,
2013-02-19 03:00:00,28.8,0.6,29.89,WSW,240,0.0,0.0,29,0.00,,SKC,0.00,VWS V12.07,2013-02-19 10:00:00,
2013-02-19 03:30:00,28.5,1.0,29.87,WSW,240,0.0,0.0,30,0.00,,SKC,0.00,VWS V12.07,2013-02-19 10:30:00,
2013-02-19 04:00:00,29.4,-0.4,29.84,WSW,240,0.0,0.0,27,0.00,,SKC,0.00,VWS V12.07,2013-02-19 11:00:00,
2013-02-19 04:30:00,29.7,0.6,29.85,WSW,240,0.0,0.0,28,0.00,,SKC,0.00,VWS V12.07,2013-02-19 11:30:00,
2013-02-19 05:00:00,30.1,0.9,29.84,WSW,240,0.0,0.0,28,0.00,,SKC,0.00,VWS V12.07,2013-02-19 12:00:00,
2013-02-19 05:30:00,28.4,0.9,29.87,WSW,240,0.0,0.0,30,0.00,,SKC,0.00,VWS V12.07,2013-02-19 12:30:00,
2013-02-19 06:00:00,30.1,0.9,29.85,SSW,197,0.0,0.0,28,0.00,,SKC,0.00,VWS V12.07,2013-02-19 13:00:00,
2013-02-19 06:30:00,29.5,1.2,29.86,SSW,195,0.0,0.0,29,0.00,,SKC,0.00,VWS V12.07,2013-02-19 13:30:00,
2013-02-19 07:01:00,29.8,2.9,29.86,ESE,105,0.0,4.0,31,0.00,,SKC,0.00,VWS V12.07,2013-02-19 14:01:00,
2013-02-19 07:30:00,29.7,2.1,29.85,ESE,105,0.0,0.0,30,0.00,,SKC,0.00,VWS V12.07,2013-02-19 14:30:00,
2013-02-19 08:01:00,30.7,3.0,29.84,ESE,106,0.0,3.0,30,0.00,,SKC,0.00,VWS V12.07,2013-02-19 15:01:00,
2013-02-19 08:30:00,32.7,4.7,29.83,SSE,167,0.0,0.0,30,0.00,,SKC,0.00,VWS V12.07,2013-02-19 15:30:00,
2013-02-19 09:00:00,33.7,4.1,29.82,SE,138,0.0,3.0,28,0.00,,SKC,0.00,VWS V12.07,2013-02-19 16:00:00,
2013-02-19 09:30:00,36.5,6.5,29.81,SE,136,0.0,0.0,28,0.00,,SKC,0.00,VWS V12.07,2013-02-19 16:30:00,
2013-02-19 10:00:00,39.1,5.4,29.77,ENE,62,0.0,1.0,24,0.00,,SKC,0.00,VWS V12.07,2013-02-19 17:00:00,
2013-02-19 10:30:00,40.3,6.4,29.76,ENE,65,0.0,1.0,24,0.00,,SKC,0.00,VWS V12.07,2013-02-19 17:30:00,
2013-02-19 11:00:00,40.8,7.7,29.73,ENE,63,0.0,3.0,25,0.00,,SKC,0.00,VWS V12.07,2013-02-19 18:00:00,
2013-02-19 11:30:00,41.8,6.7,29.73,ENE,64,0.0,0.0,23,0.00,,SKC,0.00,VWS V12.07,2013-02-19 18:30:00,
2013-02-19 12:00:00,44.1,7.7,29.69,ENE,70,0.0,1.0,22,0.00,,SKC,0.00,VWS V12.07,2013-02-19 19:00:00,
2013-02-19 12:30:00,43.9,6.5,29.67,ENE,58,0.0,1.0,21,0.00,,SKC,0.00,VWS V12.07,2013-02-19 19:30:00,
2013-02-19 13:01:00,43.9,7.5,29.65,NE,43,0.0,4.0,22,0.00,,SKC,0.00,VWS V12.07,2013-02-19 20:01:00,
2013-02-19 13:30:00,44.3,7.9,29.64,NE,46,1.0,4.0,22,0.00,,SKC,0.00,VWS V12.07,2013-02-19 20:30:00,
2013-02-19 14:01:00,44.8,9.3,29.61,ENE,58,0.0,4.0,23,0.00,,SKC,0.00,VWS V12.07,2013-02-19 21:01:00,
2013-02-19 14:30:00,45.7,9.1,29.59,ENE,63,0.0,1.0,22,0.00,,SKC,0.00,VWS V12.07,2013-02-19 21:30:00,
2013-02-19 15:00:00,46.1,10.4,29.58,East,87,0.0,4.0,23,0.00,,SKC,0.00,VWS V12.07,2013-02-19 22:00:00,
2013-02-19 15:30:00,44.5,10.0,29.57,ENE,78,0.0,7.0,24,0.00,,SKC,0.00,VWS V12.07,2013-02-19 22:30:00,
2013-02-19 16:00:00,44.5,10.0,29.57,NE,37,0.0,7.0,24,0.00,,SKC,0.00,VWS V12.07,2013-02-19 23:00:00,
2013-02-19 16:30:00,43.6,12.7,29.56,NE,43,0.0,1.0,28,0.00,,SKC,0.00,VWS V12.07,2013-02-19 23:30:00,
2013-02-19 17:00:00,43.2,12.3,29.56,NE,44,0.0,1.0,28,0.00,,SKC,0.00,VWS V12.07,2013-02-20 00:00:00,
2013-02-19 17:30:00,41.9,11.2,29.55,NE,44,0.0,0.0,28,0.00,,SKC,0.00,VWS V12.07,2013-02-20 00:30:00,
2013-02-19 18:00:00,39.9,11.0,29.56,NE,46,0.0,1.0,30,0.00,,SKC,0.00,VWS V12.07,2013-02-20 01:00:00,
2013-02-19 18:30:00,37.9,13.4,29.57,ESE,116,0.0,0.0,36,0.00,,SKC,0.00,VWS V12.07,2013-02-20 01:30:00,
2013-02-19 19:01:00,37.3,8.7,29.58,SSE,167,0.0,10.0,30,0.00,,SKC,0.00,VWS V12.07,2013-02-20 02:01:00,
2013-02-19 19:30:00,37.6,6.7,29.56,North,360,0.0,8.0,27,0.00,,SKC,0.00,VWS V12.07,2013-02-20 02:30:00,
2013-02-19 20:01:00,37.9,7.7,29.56,NE,39,0.0,10.0,28,0.00,,SKC,0.00,VWS V12.07,2013-02-20 03:01:00,
2013-02-19 20:30:00,36.3,8.6,29.55,ESE,121,0.0,6.0,31,0.00,,SKC,0.00,VWS V12.07,2013-02-20 03:30:00,
2013-02-19 21:30:00,35.6,8.7,29.52,NE,43,0.0,1.0,32,0.00,,SKC,0.00,VWS V12.07,2013-02-20 04:30:00,
2013-02-19 22:00:00,36.3,8.6,29.52,SE,144,0.0,6.0,31,0.00,,SKC,0.00,VWS V12.07,2013-02-20 05:00:00,
2013-02-19 22:30:00,38.9,10.9,29.50,NNW,330,0.0,1.0,31,0.00,,SKC,0.00,VWS V12.07,2013-02-20 05:30:00,
2013-02-19 23:00:00,35.0,10.1,29.53,NE,36,0.0,2.0,35,0.00,,SKC,0.00,VWS V12.07,2013-02-20 06:00:00,
2013-02-19 23:30:00,34.1,11.8,29.51,ESE,102,0.0,0.0,39,0.00,,SKC,0.00,VWS V12.07,2013-02-20 06:30:00,